Appleton, Wisconsin
Current Conditions -  °F | °C
As of 3:20 PM on Monday 24 Nov 2014 (Local Time) from KATW Reporting Station
Moderate Snow Moderate Snow  
Wind Chill: 23°   Ceiling: 300
Heat Index: 32°   Visibility: 0.5mi
Dew Point: 32°   Wind: 13mph
Humidity: 100%   Direction: 280°W
Pressure: 29.25"   Gusts: NA
Location:  44.26°N, 88.42°W
Report Text: KATW 242120Z 28011KT 1/2SM SN OVC003 00/00 A2925
Loading
Personal Weather Stations






























Interactive Weather Map New forecast layout! Learn more

10-Day Weather Forecast

Advertisements
Track Severe Weather on mobile